Time;durP1;ratioP1;P1;durP2;ratioP2;P2;SDS_P1;SDS_P2;PMS_P1;PMS_P2;Temp;Humidity;BMP_temperature;BMP_pressure;BME280_temperature;BME280_humidity;BME280_pressure;Samples;Min_cycle;Max_cycle;Signal;HPM_P1;HPM_P2
2022/10/06 00:04:16;;;;;;;13.15;3.50;;;;;;;11.11;100.00;101982.38;10342139;28;20171;-80
2022/10/06 00:09:17;;;;;;;7.35;3.00;;;;;;;11.02;100.00;101994.09;10358987;28;20093;-79
2022/10/06 00:14:17;;;;;;;15.93;2.55;;;;;;;10.85;100.00;101999.97;10359436;28;20053;-80
2022/10/06 00:19:17;;;;;;;7.22;3.13;;;;;;;10.93;100.00;102014.47;10359776;28;20062;-81
2022/10/06 00:24:18;;;;;;;7.78;3.17;;;;;;;10.95;100.00;102019.78;10352366;28;20042;-79
2022/10/06 00:29:18;;;;;;;8.38;2.40;;;;;;;10.82;100.00;102037.31;10359287;28;20088;-79
2022/10/06 00:34:19;;;;;;;8.50;2.58;;;;;;;10.71;100.00;102031.38;10356962;28;20149;-81
2022/10/06 00:39:20;;;;;;;10.35;2.67;;;;;;;10.63;100.00;102031.66;10357027;28;20042;-81
2022/10/06 00:44:20;;;;;;;7.03;2.08;;;;;;;10.63;100.00;102037.84;10358794;28;20125;-80
2022/10/06 00:49:31;;;;;;;5.40;1.90;;;;;;;10.65;100.00;102049.31;10359181;28;20114;-80
2022/10/06 00:54:32;;;;;;;9.65;2.60;;;;;;;10.63;100.00;102064.00;10358508;28;20049;-80
2022/10/06 00:59:33;;;;;;;7.95;1.88;;;;;;;10.61;100.00;102069.94;10341203;28;20133;-80
2022/10/06 01:04:35;;;;;;;13.50;3.72;;;;;;;10.47;100.00;102075.16;10347336;28;20493;-80
2022/10/06 01:09:36;;;;;;;;;;;;;;;10.46;100.00;102083.81;10350888;28;20045;-79
2022/10/06 01:14:36;;;;;;;14.82;3.42;;;;;;;10.39;100.00;102095.59;10366368;28;19917;-79
2022/10/06 01:20:00;;;;;;;8.30;3.05;;;;;;;10.41;100.00;102103.53;10313051;28;20057;-79
2022/10/06 01:25:01;;;;;;;9.77;2.20;;;;;;;10.28;100.00;102109.63;10364235;28;20037;-79
2022/10/06 01:30:02;;;;;;;7.00;2.92;;;;;;;10.24;100.00;102118.06;10349372;28;20405;-79
2022/10/06 01:35:03;;;;;;;12.57;3.30;;;;;;;10.26;100.00;102119.06;10347119;28;20042;-78
2022/10/06 01:40:04;;;;;;;7.63;2.05;;;;;;;10.09;100.00;102134.50;10363961;28;20041;-78
2022/10/06 01:45:05;;;;;;;8.93;2.60;;;;;;;10.05;100.00;102134.16;10362649;28;20048;-79
2022/10/06 01:50:07;;;;;;;6.90;2.00;;;;;;;10.03;100.00;102143.59;10325189;28;20034;-79
2022/10/06 01:55:07;;;;;;;9.30;2.23;;;;;;;10.04;100.00;102148.03;10356034;28;20034;-79
2022/10/06 02:00:09;;;;;;;15.05;3.38;;;;;;;9.96;100.00;102156.25;10362154;28;20038;-81
2022/10/06 02:05:09;;;;;;;12.13;2.50;;;;;;;9.98;100.00;102167.72;10344513;28;20046;-80
2022/10/06 02:10:10;;;;;;;16.67;2.92;;;;;;;10.00;100.00;102165.25;10321700;28;20441;-80
2022/10/06 02:15:11;;;;;;;13.90;2.53;;;;;;;9.93;100.00;102174.34;10320626;28;20041;-81
2022/10/06 02:20:11;;;;;;;10.10;2.35;;;;;;;9.80;100.00;102182.09;10344305;28;20573;-80
2022/10/06 02:25:12;;;;;;;11.68;4.40;;;;;;;9.74;100.00;102186.91;10342905;28;20046;-80
2022/10/06 02:30:15;;;;;;;9.43;2.40;;;;;;;9.68;100.00;102196.13;10360757;28;20089;-79
2022/10/06 02:35:15;;;;;;;11.23;2.30;;;;;;;9.67;100.00;102207.38;10358647;28;20045;-79
2022/10/06 02:40:16;;;;;;;9.07;2.65;;;;;;;9.57;100.00;102212.72;10361972;28;20050;-78
2022/10/06 02:45:17;;;;;;;6.82;2.67;;;;;;;9.48;100.00;102217.28;10361672;28;20052;-80
2022/10/06 02:50:17;;;;;;;11.80;3.08;;;;;;;9.51;100.00;102220.13;10359013;28;20080;-80
2022/10/06 02:55:18;;;;;;;32.55;7.28;;;;;;;9.55;100.00;102227.38;10361275;28;20030;-80
2022/10/06 03:00:18;;;;;;;12.20;3.92;;;;;;;9.53;100.00;102229.91;10319606;28;1196463;-79
2022/10/06 03:05:19;;;;;;;13.98;2.97;;;;;;;9.54;100.00;102243.84;10363485;28;20038;-80
2022/10/06 03:10:20;;;;;;;10.60;2.58;;;;;;;9.42;100.00;102251.72;10358948;28;20037;-80
2022/10/06 03:15:20;;;;;;;14.27;4.80;;;;;;;9.31;100.00;102265.69;10361208;28;20501;-80
2022/10/06 03:20:21;;;;;;;9.13;3.08;;;;;;;9.27;100.00;102274.09;10360758;28;20053;-79
2022/10/06 03:25:21;;;;;;;7.57;2.65;;;;;;;9.12;100.00;102287.78;10359410;28;20430;-79
2022/10/06 03:30:22;;;;;;;11.75;3.13;;;;;;;9.06;100.00;102296.06;10360834;28;20489;-79
2022/10/06 03:35:24;;;;;;;10.48;3.33;;;;;;;8.89;100.00;102310.44;10361250;28;20042;-78
2022/10/06 03:40:24;;;;;;;7.35;2.25;;;;;;;8.90;100.00;102317.47;10359793;28;20042;-79
2022/10/06 03:45:25;;;;;;;11.88;2.70;;;;;;;8.79;100.00;102328.78;10358454;28;20030;-79
2022/10/06 03:50:25;;;;;;;7.40;2.25;;;;;;;8.64;100.00;102333.69;10357273;28;20048;-78
2022/10/06 03:55:26;;;;;;;9.98;3.25;;;;;;;8.45;100.00;102332.19;10359478;28;20038;-80
2022/10/06 04:00:26;;;;;;;14.65;2.78;;;;;;;8.29;100.00;102339.59;10359740;28;20136;-78
2022/10/06 04:05:27;;;;;;;12.52;2.95;;;;;;;8.24;100.00;102347.06;10358691;28;20034;-79
2022/10/06 04:10:27;;;;;;;20.83;3.35;;;;;;;8.13;100.00;102347.88;10356491;28;20489;-78
2022/10/06 04:15:28;;;;;;;24.13;4.20;;;;;;;8.07;100.00;102358.72;10359569;28;20041;-79
2022/10/06 04:20:28;;;;;;;13.52;4.75;;;;;;;8.06;100.00;102372.53;10324772;28;20593;-78
2022/10/06 04:25:29;;;;;;;11.65;2.60;;;;;;;8.01;100.00;102379.06;10321887;28;20069;-78
2022/10/06 04:30:29;;;;;;;13.55;4.45;;;;;;;7.90;100.00;102386.03;10357304;28;20075;-78
2022/10/06 04:35:30;;;;;;;13.00;4.53;;;;;;;7.85;100.00;102392.53;10356962;28;20080;-78
2022/10/06 04:40:30;;;;;;;11.80;4.60;;;;;;;7.68;100.00;102397.25;10357077;28;20065;-78
2022/10/06 04:45:31;;;;;;;9.70;2.60;;;;;;;7.63;100.00;102402.06;10336623;28;20038;-80
2022/10/06 04:50:31;;;;;;;17.42;2.90;;;;;;;7.51;100.00;102410.56;10355634;28;20512;-80
2022/10/06 04:55:35;;;;;;;14.80;3.47;;;;;;;7.39;100.00;102426.03;10353860;28;20087;-83
2022/10/06 05:00:35;;;;;;;16.42;4.13;;;;;;;7.45;100.00;102421.34;10353187;28;20034;-79
2022/10/06 05:05:36;;;;;;;18.73;6.50;;;;;;;7.36;100.00;102429.31;10356963;28;20034;-81
2022/10/06 05:10:36;;;;;;;12.15;5.63;;;;;;;7.43;100.00;102434.25;10356686;28;20099;-77
2022/10/06 05:15:37;;;;;;;16.38;4.72;;;;;;;7.40;100.00;102443.50;10356642;28;20091;-81
2022/10/06 05:20:38;;;;;;;15.20;3.47;;;;;;;7.32;100.00;102453.28;10355749;28;20038;-79
2022/10/06 05:25:38;;;;;;;20.02;4.95;;;;;;;7.34;100.00;102459.53;10354065;28;20137;-80
2022/10/06 05:30:39;;;;;;;18.00;5.45;;;;;;;7.46;100.00;102465.78;10354529;28;20356;-82
2022/10/06 05:35:50;;;;;;;16.85;5.05;;;;;;;7.44;100.00;102479.44;10353448;28;20072;-81
2022/10/06 05:40:50;;;;;;;16.40;4.13;;;;;;;7.29;100.00;102492.06;10340074;28;20124;-83
2022/10/06 05:45:55;;;;;;;14.70;3.50;;;;;;;7.37;100.00;102487.50;10354747;28;20042;-81
2022/10/06 05:51:08;;;;;;;15.52;4.63;;;;;;;7.30;100.00;102504.31;10327333;28;20044;-79
2022/10/06 05:56:12;;;;;;;24.10;6.88;;;;;;;7.40;100.00;102513.81;10339622;28;20046;-80
2022/10/06 06:01:14;;;;;;;20.65;5.47;;;;;;;7.44;100.00;102513.31;10361235;28;20042;-80
2022/10/06 06:06:19;;;;;;;15.13;6.20;;;;;;;7.49;100.00;102523.38;10361648;28;20501;-80
2022/10/06 06:11:30;;;;;;;15.18;4.25;;;;;;;7.59;100.00;102534.59;10360500;28;20054;-79
2022/10/06 06:16:31;;;;;;;26.45;5.05;;;;;;;7.60;100.00;102542.53;10362251;28;20042;-80
2022/10/06 06:21:31;;;;;;;16.23;3.75;;;;;;;7.68;100.00;102535.38;10361658;28;20132;-80
2022/10/06 06:26:35;;;;;;;11.80;3.55;;;;;;;7.79;100.00;102541.50;10360348;28;20050;-78
2022/10/06 06:31:36;;;;;;;26.50;13.85;;;;;;;7.78;100.00;102548.44;10363316;28;20390;-78
2022/10/06 06:36:42;;;;;;;11.85;5.72;;;;;;;8.01;100.00;102552.09;10360233;28;20037;-79
2022/10/06 06:41:46;;;;;;;15.25;6.50;;;;;;;8.17;100.00;102554.28;10360936;28;20456;-78
2022/10/06 06:46:48;;;;;;;34.10;16.10;;;;;;;8.23;100.00;102564.34;10341597;28;20038;-77
2022/10/06 06:51:48;;;;;;;14.73;7.00;;;;;;;8.50;100.00;102570.97;10360462;28;20042;-79
2022/10/06 06:56:50;;;;;;;19.75;6.28;;;;;;;9.19;100.00;102576.50;10355509;28;20368;-79
2022/10/06 07:01:51;;;;;;;37.45;16.60;;;;;;;9.70;96.65;102586.69;10359798;28;20182;-78
2022/10/06 07:06:58;;;;;;;21.05;5.18;;;;;;;9.62;97.61;102597.34;10361196;28;24615;-78
2022/10/06 07:11:58;;;;;;;15.52;3.33;;;;;;;9.50;99.33;102599.88;10361623;28;20056;-78
2022/10/06 07:27:42;;;;;;;10.77;2.92;;;;;;;10.49;93.85;102625.88;10347829;28;20030;-78
2022/10/06 07:32:44;;;;;;;16.15;3.70;;;;;;;10.86;91.28;102647.00;10353528;28;20049;-81
2022/10/06 07:37:45;;;;;;;19.20;4.30;;;;;;;11.12;89.13;102649.75;10355680;28;20046;-78
2022/10/06 07:42:50;;;;;;;27.42;4.50;;;;;;;11.26;86.86;102654.28;10357031;28;20281;-79
2022/10/06 07:47:57;;;;;;;19.00;3.70;;;;;;;11.41;86.19;102659.72;10359002;28;20041;-78
2022/10/06 07:53:03;;;;;;;16.25;4.10;;;;;;;11.52;86.37;102665.78;10357607;28;20041;-81
2022/10/06 07:58:10;;;;;;;16.88;5.20;;;;;;;11.59;85.78;102673.28;10340098;28;20038;-81
2022/10/06 08:03:13;;;;;;;7.82;3.30;;;;;;;11.69;86.62;102681.81;10356309;28;20034;-79
2022/10/06 08:08:13;;;;;;;22.50;4.30;;;;;;;11.96;88.39;102681.97;10342108;28;20049;-79
2022/10/06 08:13:14;;;;;;;17.42;4.07;;;;;;;12.19;86.03;102686.22;10356454;28;20038;-77
2022/10/06 08:18:15;;;;;;;8.57;4.00;;;;;;;12.41;85.24;102679.84;10355839;28;20049;-79
2022/10/06 08:23:15;;;;;;;17.38;4.35;;;;;;;12.64;84.41;102694.59;10358354;28;20048;-77
2022/10/06 08:28:16;;;;;;;14.32;4.05;;;;;;;12.80;83.29;102693.91;10359678;28;20056;-77
2022/10/06 08:33:17;;;;;;;20.20;4.53;;;;;;;13.06;83.31;102708.81;10358299;28;20030;-79
2022/10/06 08:38:19;;;;;;;12.70;3.53;;;;;;;13.34;83.98;102709.72;10358875;28;20069;-79
2022/10/06 08:43:19;;;;;;;22.13;4.70;;;;;;;13.42;80.77;102710.25;10342628;28;20034;-77
2022/10/06 08:48:28;;;;;;;7.30;7.00;;;;;;;13.59;78.18;102713.97;10343053;28;20034;-82
2022/10/06 08:53:29;;;;;;;14.00;4.53;;;;;;;13.81;77.19;102721.56;10358739;28;20510;-81
2022/10/06 08:58:35;;;;;;;10.18;3.70;;;;;;;13.98;77.65;102721.72;10360305;28;20035;-82
2022/10/06 09:03:36;;;;;;;16.90;3.75;;;;;;;14.22;77.29;102738.13;10360622;28;20444;-78
2022/10/06 09:08:48;;;;;;;17.35;3.47;;;;;;;14.43;73.73;102742.91;10342674;28;20042;-79
2022/10/06 09:13:54;;;;;;;18.37;3.43;;;;;;;14.64;72.17;102748.59;10342295;28;20065;-78
2022/10/06 09:19:12;;;;;;;10.80;3.60;;;;;;;14.75;70.58;102750.19;10342181;28;20038;-80
2022/10/06 09:24:15;;;;;;;14.23;3.38;;;;;;;15.01;70.30;102755.22;10330058;28;20120;-79
2022/10/06 09:29:16;;;;;;;8.15;2.67;;;;;;;15.35;67.61;102760.75;10349872;28;20041;-78
2022/10/06 09:34:38;;;;;;;9.48;3.10;;;;;;;16.23;62.82;102762.16;10365736;28;20046;-77
2022/10/06 09:39:43;;;;;;;21.48;6.43;;;;;;;18.85;55.44;102762.56;10348622;28;20127;-80
2022/10/06 09:44:58;;;;;;;19.05;6.63;;;;;;;20.12;49.83;102765.13;10348364;28;20037;-78
2022/10/06 09:50:16;;;;;;;17.38;5.40;;;;;;;22.06;45.57;102765.50;10367302;28;20482;-78
2022/10/06 09:55:17;;;;;;;10.05;3.90;;;;;;;23.34;40.50;102769.94;10367421;28;20030;-79
2022/10/06 10:00:37;;;;;;;14.07;5.37;;;;;;;22.81;42.35;102768.56;10364410;28;20038;-84
2022/10/06 10:05:39;;;;;;;7.50;3.67;;;;;;;22.99;40.88;102770.81;10332757;28;20463;-81
2022/10/06 10:10:40;;;;;;;10.27;3.50;;;;;;;23.12;40.90;102782.72;10362739;28;20110;-77
2022/10/06 10:15:54;;;;;;;8.52;2.30;;;;;;;23.21;39.77;102771.34;10363161;28;20129;-77
2022/10/06 10:20:59;;;;;;;11.40;2.72;;;;;;;23.78;37.82;102775.44;10345065;28;20478;-77
2022/10/06 10:26:09;;;;;;;14.85;3.45;;;;;;;23.96;40.31;102774.94;10346315;28;20057;-77
2022/10/06 10:31:31;;;;;;;17.80;3.67;;;;;;;24.16;36.64;102775.41;10363046;28;20037;-77
2022/10/06 10:36:49;;;;;;;7.55;2.13;;;;;;;22.66;38.72;102780.63;10364135;28;20073;-82
2022/10/06 10:41:50;;;;;;;6.43;2.40;;;;;;;23.13;36.67;102779.19;10346838;28;20057;-80
2022/10/06 10:46:51;;;;;;;9.25;2.78;;;;;;;22.75;38.99;102776.41;10362233;28;20057;-79
2022/10/06 10:51:54;;;;;;;7.30;2.93;;;;;;;23.69;36.67;102783.25;10330267;28;20524;-77
2022/10/06 10:56:55;;;;;;;8.23;2.38;;;;;;;24.99;34.94;102777.03;10361439;28;20066;-84
2022/10/06 11:01:59;;;;;;;5.20;2.25;;;;;;;23.82;35.62;102781.75;10362094;28;20117;-82
2022/10/06 11:07:05;;;;;;;5.82;2.00;;;;;;;23.36;37.30;102787.81;10362215;28;20033;-82
2022/10/06 11:12:12;;;;;;;7.07;2.17;;;;;;;24.09;37.32;102778.84;10361964;28;20042;-82
2022/10/06 11:17:43;;;;;;;7.55;2.70;;;;;;;24.42;33.01;102785.75;10362541;28;20038;-80
2022/10/06 11:23:25;;;;;;;7.57;2.03;;;;;;;23.83;34.58;102781.78;10371260;28;20053;-78
2022/10/06 11:28:39;;;;;;;6.80;1.70;;;;;;;24.19;34.73;102779.91;10331951;28;20034;-81
2022/10/06 11:33:49;;;;;;;6.78;1.98;;;;;;;24.82;34.51;102782.09;10361910;28;20497;-82
2022/10/06 11:38:59;;;;;;;4.75;1.88;;;;;;;24.62;34.83;102775.44;10361095;28;20033;-80
2022/10/06 11:44:15;;;;;;;8.00;1.90;;;;;;;24.70;34.09;102772.00;10344717;28;20046;-82
2022/10/06 11:49:28;;;;;;;14.45;3.10;;;;;;;24.39;34.69;102768.72;10359481;28;20097;-79
2022/10/06 11:54:46;;;;;;;15.30;3.45;;;;;;;23.63;34.77;102775.97;10362260;28;20125;-79
2022/10/06 11:59:53;;;;;;;8.80;2.38;;;;;;;24.63;34.36;102766.53;10361430;28;20506;-80
2022/10/06 12:05:08;;;;;;;7.45;1.60;;;;;;;24.41;33.49;102754.53;10345133;28;20038;-78
2022/10/06 12:10:27;;;;;;;8.82;2.97;;;;;;;25.60;33.75;102758.41;10361135;28;20042;-78
2022/10/06 12:15:39;;;;;;;7.20;2.65;;;;;;;25.48;31.25;102760.91;10361232;28;20076;-81
2022/10/06 12:20:58;;;;;;;8.85;2.45;;;;;;;24.92;31.44;102762.63;10358773;28;20414;-81
2022/10/06 12:26:02;;;;;;;4.95;1.50;;;;;;;23.98;33.43;102758.94;10359559;28;20433;-82
2022/10/06 12:31:38;;;;;;;5.35;1.75;;;;;;;24.22;34.07;102752.34;10359584;28;20964;-78
2022/10/06 12:36:39;;;;;;;8.20;2.97;;;;;;;24.34;32.85;102753.47;10337974;28;20045;-80
2022/10/06 12:42:27;;;;;;;10.27;3.53;;;;;;;24.90;32.18;102759.91;10342101;28;20076;-79
2022/10/06 12:47:36;;;;;;;9.23;1.60;;;;;;;24.53;31.81;102747.59;10351722;28;20045;-77
2022/10/06 12:52:53;;;;;;;4.80;1.38;;;;;;;24.41;31.97;102746.50;10360390;28;20034;-79
2022/10/06 12:57:53;;;;;;;5.15;1.58;;;;;;;24.22;31.84;102728.28;10361792;28;20465;-81
2022/10/06 13:02:54;;;;;;;7.97;1.60;;;;;;;24.40;32.99;102731.31;10365783;28;20044;-77
2022/10/06 13:07:56;;;;;;;10.77;2.20;;;;;;;24.44;32.67;102730.50;10367097;28;20111;-79
2022/10/06 13:12:57;;;;;;;;;;;;;;;24.91;31.42;102726.91;10366745;28;20518;-77
2022/10/06 13:18:06;;;;;;;9.77;2.38;;;;;;;23.95;31.89;102722.31;10367114;28;20011;-80
2022/10/06 13:23:33;;;;;;;5.97;1.40;;;;;;;24.54;31.74;102730.69;10367960;28;20042;-81
2022/10/06 13:28:42;;;;;;;6.50;1.50;;;;;;;24.71;31.13;102723.84;10365020;28;20497;-80
2022/10/06 13:33:43;;;;;;;3.13;1.08;;;;;;;24.60;31.19;102723.66;10367687;28;20502;-80
2022/10/06 13:38:45;;;;;;;7.90;1.67;;;;;;;24.66;32.00;102719.28;10348846;28;20129;-79
2022/10/06 13:43:50;;;;;;;3.78;1.20;;;;;;;24.76;30.89;102721.28;10365322;28;20101;-81
2022/10/06 13:48:59;;;;;;;4.28;1.45;;;;;;;23.75;31.75;102714.78;10365081;28;20061;-81
2022/10/06 13:54:03;;;;;;;4.90;1.77;;;;;;;23.82;33.76;102720.25;10349442;28;20041;-78
2022/10/06 13:59:27;;;;;;;4.93;2.03;;;;;;;24.30;33.69;102719.50;10349223;28;20384;-77
2022/10/06 14:04:28;;;;;;;3.53;1.55;;;;;;;23.63;31.52;102727.88;10366642;28;20046;-76
2022/10/06 14:09:30;;;;;;;3.40;1.67;;;;;;;23.33;31.80;102728.06;10362158;28;20046;-82
2022/10/06 14:14:30;;;;;;;11.15;1.60;;;;;;;23.35;31.57;102727.22;10365110;28;20034;-80
2022/10/06 14:19:35;;;;;;;6.13;1.80;;;;;;;22.91;32.97;102726.97;10365764;28;20397;-79
2022/10/06 14:24:36;;;;;;;6.50;1.90;;;;;;;22.62;33.54;102729.78;10347719;28;20045;-78
2022/10/06 14:29:37;;;;;;;5.68;1.70;;;;;;;22.54;34.86;102722.47;10366244;28;20053;-81
2022/10/06 14:34:39;;;;;;;6.55;2.80;;;;;;;23.38;34.78;102715.72;10359590;28;20084;-81
2022/10/06 14:39:41;;;;;;;11.85;2.08;;;;;;;22.67;35.14;102721.06;10347497;28;20171;-81
2022/10/06 14:44:42;;;;;;;5.82;1.65;;;;;;;22.58;35.62;102728.81;10345291;28;20120;-82
2022/10/06 14:49:44;;;;;;;4.78;1.55;;;;;;;22.19;36.33;102719.69;10347714;28;20111;-79
2022/10/06 14:54:44;;;;;;;;;;;;;;;22.59;35.23;102717.28;10360794;28;20053;-79
2022/10/06 14:59:44;;;;;;;3.05;1.40;;;;;;;22.24;35.61;102712.72;10362300;28;19928;-81
2022/10/06 15:04:45;;;;;;;13.30;1.77;;;;;;;21.59;36.56;102717.88;10363763;28;20042;-81
2022/10/06 15:09:45;;;;;;;8.82;2.22;;;;;;;21.60;34.78;102714.34;10360341;28;20128;-80
2022/10/06 15:14:46;;;;;;;6.82;1.38;;;;;;;19.70;38.81;102718.31;10360357;28;20042;-82
2022/10/06 15:19:47;;;;;;;5.10;1.88;;;;;;;18.74;42.60;102720.56;10361354;28;20048;-82
2022/10/06 15:24:50;;;;;;;4.15;1.60;;;;;;;18.09;43.47;102712.38;10345566;28;20030;-78
2022/10/06 15:29:50;;;;;;;5.57;1.70;;;;;;;17.49;46.45;102702.47;10362994;28;20499;-78
2022/10/06 15:34:51;;;;;;;7.65;1.40;;;;;;;17.23;49.09;102707.41;10361615;28;20177;-78
2022/10/06 15:39:51;;;;;;;4.65;1.42;;;;;;;16.73;49.86;102712.81;10363347;28;20117;-78
2022/10/06 15:44:52;;;;;;;10.23;1.85;;;;;;;16.34;50.89;102707.25;10362044;28;20164;-77
2022/10/06 15:49:52;;;;;;;9.73;2.00;;;;;;;15.79;54.33;102706.03;10361406;28;20398;-79
2022/10/06 15:54:53;;;;;;;7.65;1.30;;;;;;;15.20;58.93;102707.09;10359770;28;20036;-80
2022/10/06 15:59:53;;;;;;;6.97;1.13;;;;;;;14.47;59.68;102714.22;10362038;28;20069;-79
2022/10/06 16:10:04;;;;;;;4.43;1.13;;;;;;;13.61;64.04;102704.47;10354436;28;20060;-78
2022/10/06 16:15:05;;;;;;;4.82;1.80;;;;;;;13.15;64.50;102707.59;10343815;28;20116;-78
2022/10/06 16:20:06;;;;;;;7.45;1.77;;;;;;;12.80;71.65;102709.66;10350690;28;20069;-78
2022/10/06 16:25:07;;;;;;;5.55;1.55;;;;;;;12.40;74.06;102710.47;10357969;28;20486;-78
2022/10/06 16:30:08;;;;;;;8.63;1.65;;;;;;;12.00;75.60;102711.19;10359712;28;20038;-77
2022/10/06 16:35:08;;;;;;;8.23;1.65;;;;;;;11.72;78.76;102708.25;10356747;28;20045;-78
2022/10/06 16:40:09;;;;;;;5.82;1.23;;;;;;;11.40;81.06;102709.44;10357437;28;20128;-78
2022/10/06 16:45:13;;;;;;;5.38;1.20;;;;;;;11.07;81.75;102714.00;10358654;28;20037;-78
2022/10/06 16:50:13;;;;;;;5.07;1.42;;;;;;;10.83;82.37;102716.59;10360370;28;20061;-79
2022/10/06 16:55:14;;;;;;;9.18;2.20;;;;;;;10.66;84.17;102715.28;10358494;28;20083;-78
2022/10/06 17:00:15;;;;;;;6.20;1.27;;;;;;;10.46;86.46;102714.66;10357637;28;20045;-78
2022/10/06 17:05:15;;;;;;;6.50;1.70;;;;;;;10.13;86.87;102709.50;10359116;28;20041;-80
2022/10/06 17:10:16;;;;;;;6.25;1.30;;;;;;;9.97;89.10;102712.56;10358552;28;20038;-80
2022/10/06 17:15:16;;;;;;;3.70;1.13;;;;;;;9.84;91.35;102722.84;10357113;28;20494;-80
2022/10/06 17:20:17;;;;;;;9.52;2.00;;;;;;;9.71;91.52;102723.56;10355598;28;20069;-80
2022/10/06 17:25:17;;;;;;;9.63;1.40;;;;;;;9.53;92.42;102717.75;10357491;28;20125;-81
2022/10/06 17:30:18;;;;;;;6.70;2.05;;;;;;;9.32;92.98;102720.44;10356316;28;20070;-79
2022/10/06 17:35:18;;;;;;;11.38;1.70;;;;;;;9.17;94.31;102717.47;10356290;28;20581;-80
2022/10/06 17:40:19;;;;;;;9.02;2.00;;;;;;;9.15;95.93;102720.72;10357899;28;20092;-80
2022/10/06 17:45:20;;;;;;;6.53;1.50;;;;;;;9.02;95.78;102719.72;10360700;28;20113;-79
2022/10/06 17:50:20;;;;;;;8.27;1.33;;;;;;;8.97;96.46;102721.03;10364779;28;20060;-80
2022/10/06 17:55:21;;;;;;;10.75;3.90;;;;;;;8.86;96.45;102720.13;10364961;28;20054;-80
2022/10/06 18:00:21;;;;;;;10.23;2.40;;;;;;;8.72;96.85;102716.34;10366024;28;20428;-79
2022/10/06 18:05:22;;;;;;;6.72;1.35;;;;;;;8.58;97.15;102720.41;10364482;28;20042;-80
2022/10/06 18:15:42;;;;;;;6.97;3.50;;;;;;;8.41;98.90;102708.47;10362675;28;20053;-80
2022/10/06 18:20:43;;;;;;;4.82;1.52;;;;;;;8.33;98.85;102718.25;10365498;28;20034;-78
2022/10/06 18:25:44;;;;;;;10.10;3.85;;;;;;;8.27;100.00;102714.19;10363543;28;20124;-78
2022/10/06 18:30:49;;;;;;;7.90;1.58;;;;;;;8.23;100.00;102707.81;10361628;28;20091;-78
2022/10/06 18:35:56;;;;;;;8.77;2.85;;;;;;;8.18;100.00;102712.59;10362562;28;20394;-78
2022/10/06 18:40:58;;;;;;;13.88;1.58;;;;;;;8.12;100.00;102712.06;10334243;28;20042;-78
2022/10/06 18:51:32;;;;;;;6.55;1.83;;;;;;;7.91;100.00;102712.03;10362485;28;20041;-78
2022/10/06 18:56:34;;;;;;;14.52;2.40;;;;;;;7.85;100.00;102718.41;10360544;28;20049;-81
2022/10/06 19:01:38;;;;;;;8.77;2.53;;;;;;;7.77;100.00;102709.88;10364441;28;20387;-78
2022/10/06 19:06:41;;;;;;;11.00;3.10;;;;;;;7.70;100.00;102712.72;10360352;28;20038;-78
2022/10/06 19:11:51;;;;;;;5.53;2.00;;;;;;;7.66;100.00;102711.56;10361450;28;20046;-79
2022/10/06 19:16:57;;;;;;;5.55;2.20;;;;;;;7.56;100.00;102716.72;10360596;28;20041;-78
2022/10/06 19:21:59;;;;;;;17.27;6.82;;;;;;;7.53;100.00;102719.06;10359517;28;20479;-78
2022/10/06 19:26:59;;;;;;;13.33;2.50;;;;;;;7.45;100.00;102720.94;10358175;28;20038;-78
2022/10/06 19:32:00;;;;;;;7.32;2.40;;;;;;;7.40;100.00;102720.56;10362318;28;20382;-77
2022/10/06 19:37:02;;;;;;;10.98;2.88;;;;;;;7.41;100.00;102719.78;10360905;28;20502;-78
2022/10/06 19:47:25;;;;;;;10.13;2.33;;;;;;;7.28;100.00;102715.13;10360352;28;20041;-78
2022/10/06 19:52:26;;;;;;;13.38;3.25;;;;;;;7.23;100.00;102708.59;10363335;28;20034;-77
2022/10/06 19:57:28;;;;;;;23.88;3.80;;;;;;;7.16;100.00;102707.13;10361419;28;20050;-77
2022/10/06 20:02:28;;;;;;;8.38;3.70;;;;;;;7.13;100.00;102709.47;10360321;28;20034;-77
2022/10/06 20:07:29;;;;;;;8.02;2.53;;;;;;;7.10;100.00;102706.59;10360977;28;20520;-78
2022/10/06 20:12:32;;;;;;;15.88;3.70;;;;;;;7.02;100.00;102711.06;10360452;28;20038;-77
2022/10/06 20:17:34;;;;;;;10.20;2.70;;;;;;;7.04;100.00;102724.25;10359968;28;20440;-77
2022/10/06 20:22:34;;;;;;;7.73;2.87;;;;;;;6.92;100.00;102715.31;10361101;28;20037;-77
2022/10/06 20:27:35;;;;;;;8.52;4.35;;;;;;;6.77;100.00;102718.31;10358638;28;20348;-77
2022/10/06 20:32:35;;;;;;;11.45;4.63;;;;;;;6.70;100.00;102702.91;10359826;28;20052;-77
2022/10/06 20:37:37;;;;;;;13.13;4.15;;;;;;;6.63;100.00;102718.72;10353384;28;20097;-77
2022/10/06 20:42:40;;;;;;;12.30;4.27;;;;;;;6.54;100.00;102722.28;10361557;28;20034;-78
2022/10/06 20:47:40;;;;;;;12.40;3.53;;;;;;;6.54;100.00;102714.50;10359248;28;20046;-77
2022/10/06 20:52:41;;;;;;;11.15;4.43;;;;;;;6.53;100.00;102716.94;10359907;28;20547;-78
2022/10/06 20:57:41;;;;;;;11.35;4.65;;;;;;;6.46;100.00;102718.94;10357991;28;20470;-78
2022/10/06 21:02:43;;;;;;;14.10;4.22;;;;;;;6.45;100.00;102709.31;10360527;28;20119;-78
2022/10/06 21:07:43;;;;;;;17.83;5.83;;;;;;;6.39;100.00;102707.84;10358821;28;20069;-78
2022/10/06 21:12:45;;;;;;;17.65;6.43;;;;;;;6.28;100.00;102704.22;10358312;28;20116;-78
2022/10/06 21:17:47;;;;;;;17.35;5.20;;;;;;;6.32;100.00;102706.34;10358742;28;20490;-78
2022/10/06 21:22:48;;;;;;;9.55;4.50;;;;;;;6.31;100.00;102696.69;10366331;28;20049;-78
2022/10/06 21:27:49;;;;;;;16.38;5.57;;;;;;;6.19;100.00;102695.53;10365331;28;20050;-78
2022/10/06 21:32:49;;;;;;;12.27;5.43;;;;;;;6.16;100.00;102690.97;10366871;28;20044;-78
2022/10/06 21:37:50;;;;;;;13.35;5.68;;;;;;;6.07;100.00;102682.31;10365337;28;20037;-78
2022/10/06 21:42:50;;;;;;;14.02;6.28;;;;;;;5.95;100.00;102677.75;10365237;28;20052;-77
2022/10/06 21:47:51;;;;;;;11.77;5.05;;;;;;;5.92;100.00;102669.66;10364855;28;20100;-77
2022/10/06 21:52:51;;;;;;;14.48;5.40;;;;;;;5.95;100.00;102669.94;10365731;28;20046;-77
2022/10/06 21:57:52;;;;;;;19.70;6.88;;;;;;;5.89;100.00;102661.56;10365070;28;20056;-77
2022/10/06 22:02:52;;;;;;;18.02;7.82;;;;;;;5.85;100.00;102656.84;10365566;28;20084;-78
2022/10/06 22:07:53;;;;;;;11.82;5.55;;;;;;;5.78;100.00;102651.81;10365698;28;20038;-78
2022/10/06 22:12:53;;;;;;;15.30;6.38;;;;;;;5.71;100.00;102647.72;10365014;28;20077;-78
2022/10/06 22:17:54;;;;;;;14.85;5.60;;;;;;;5.66;100.00;102648.94;10364250;28;20037;-79
2022/10/06 22:22:54;;;;;;;17.27;5.40;;;;;;;5.53;100.00;102650.38;10365098;28;20141;-78
2022/10/06 22:27:55;;;;;;;14.43;6.50;;;;;;;5.61;100.00;102655.38;10363556;28;20065;-78
2022/10/06 22:32:55;;;;;;;13.07;5.90;;;;;;;5.51;100.00;102648.41;10364291;28;20116;-78
2022/10/06 22:37:56;;;;;;;17.38;6.82;;;;;;;5.50;100.00;102650.06;10364261;28;20478;-77
2022/10/06 22:42:56;;;;;;;15.05;5.78;;;;;;;5.40;100.00;102635.28;10364010;28;20071;-78
2022/10/06 22:47:57;;;;;;;27.63;6.70;;;;;;;5.43;100.00;102627.81;10364775;28;20065;-77
2022/10/06 22:52:57;;;;;;;16.40;5.30;;;;;;;5.38;100.00;102622.91;10364675;28;20044;-77
2022/10/06 22:57:58;;;;;;;23.17;7.50;;;;;;;5.35;100.00;102620.94;10363854;28;20050;-78
2022/10/06 23:02:58;;;;;;;14.80;6.80;;;;;;;5.34;100.00;102618.19;10363939;28;20044;-78
2022/10/06 23:07:59;;;;;;;24.90;7.90;;;;;;;5.26;100.00;102610.56;10363578;28;20501;-77
2022/10/06 23:12:59;;;;;;;15.40;6.65;;;;;;;5.19;100.00;102610.72;10360493;28;20058;-78
2022/10/06 23:18:01;;;;;;;36.83;9.82;;;;;;;5.23;100.00;102602.47;10344797;28;20030;-78
2022/10/06 23:23:02;;;;;;;22.02;10.07;;;;;;;5.17;100.00;102594.09;10361839;28;20030;-78
2022/10/06 23:28:02;;;;;;;13.80;7.15;;;;;;;5.11;100.00;102596.09;10361255;28;20505;-78
2022/10/06 23:33:03;;;;;;;14.73;7.38;;;;;;;5.08;100.00;102600.97;10362236;28;20516;-78
2022/10/06 23:38:03;;;;;;;14.77;7.68;;;;;;;5.04;100.00;102591.06;10362107;28;20042;-78
2022/10/06 23:43:04;;;;;;;21.13;7.95;;;;;;;5.13;100.00;102586.78;10360638;28;20107;-79